sensor_id;sensor_type;location;lat;lon;timestamp;P1;durP1;ratioP1;P2;durP2;ratioP2
68854;SDS011;69984;-43.570;172.580;2023-11-21T00:02:26;2.28;;;0.38;;
68854;SDS011;69984;-43.570;172.580;2023-11-21T00:04:53;11.05;;;1.88;;
68854;SDS011;69984;-43.570;172.580;2023-11-21T00:07:21;5.20;;;0.80;;
68854;SDS011;69984;-43.570;172.580;2023-11-21T00:09:48;3.92;;;0.40;;
68854;SDS011;69984;-43.570;172.580;2023-11-21T00:12:15;1.88;;;0.30;;
68854;SDS011;69984;-43.570;172.580;2023-11-21T00:14:43;1.23;;;0.22;;
68854;SDS011;69984;-43.570;172.580;2023-11-21T00:17:10;2.45;;;0.55;;
68854;SDS011;69984;-43.570;172.580;2023-11-21T00:19:38;0.63;;;0.25;;
68854;SDS011;69984;-43.570;172.580;2023-11-21T00:22:05;0.85;;;0.20;;
68854;SDS011;69984;-43.570;172.580;2023-11-21T00:24:32;2.28;;;0.43;;
68854;SDS011;69984;-43.570;172.580;2023-11-21T00:26:59;0.63;;;0.20;;
68854;SDS011;69984;-43.570;172.580;2023-11-21T00:29:27;4.38;;;0.60;;
68854;SDS011;69984;-43.570;172.580;2023-11-21T00:31:54;3.38;;;0.43;;
68854;SDS011;69984;-43.570;172.580;2023-11-21T00:34:21;3.53;;;0.22;;
68854;SDS011;69984;-43.570;172.580;2023-11-21T00:36:48;2.13;;;0.38;;
68854;SDS011;69984;-43.570;172.580;2023-11-21T00:39:15;4.72;;;0.60;;
68854;SDS011;69984;-43.570;172.580;2023-11-21T00:41:42;2.20;;;0.50;;
68854;SDS011;69984;-43.570;172.580;2023-11-21T00:44:10;11.52;;;0.50;;
68854;SDS011;69984;-43.570;172.580;2023-11-21T00:46:37;3.40;;;0.60;;
68854;SDS011;69984;-43.570;172.580;2023-11-21T00:49:05;2.15;;;0.70;;
68854;SDS011;69984;-43.570;172.580;2023-11-21T00:51:34;4.40;;;1.00;;
68854;SDS011;69984;-43.570;172.580;2023-11-21T00:54:01;1.67;;;0.43;;
68854;SDS011;69984;-43.570;172.580;2023-11-21T00:56:28;3.97;;;0.45;;
68854;SDS011;69984;-43.570;172.580;2023-11-21T00:58:56;3.40;;;0.57;;
68854;SDS011;69984;-43.570;172.580;2023-11-21T01:01:23;2.75;;;0.38;;
68854;SDS011;69984;-43.570;172.580;2023-11-21T01:03:50;1.38;;;0.22;;
68854;SDS011;69984;-43.570;172.580;2023-11-21T01:06:17;1.05;;;0.20;;
68854;SDS011;69984;-43.570;172.580;2023-11-21T01:08:45;3.63;;;0.40;;
68854;SDS011;69984;-43.570;172.580;2023-11-21T01:11:12;3.80;;;0.47;;
68854;SDS011;69984;-43.570;172.580;2023-11-21T01:13:39;1.40;;;0.22;;
68854;SDS011;69984;-43.570;172.580;2023-11-21T01:16:07;1.77;;;0.75;;
68854;SDS011;69984;-43.570;172.580;2023-11-21T01:18:35;0.63;;;0.17;;
68854;SDS011;69984;-43.570;172.580;2023-11-21T01:21:02;2.17;;;0.40;;
68854;SDS011;69984;-43.570;172.580;2023-11-21T01:23:29;1.35;;;0.30;;
68854;SDS011;69984;-43.570;172.580;2023-11-21T01:25:57;2.53;;;0.43;;
68854;SDS011;69984;-43.570;172.580;2023-11-21T01:28:24;5.43;;;0.60;;
68854;SDS011;69984;-43.570;172.580;2023-11-21T01:30:52;4.72;;;0.32;;
68854;SDS011;69984;-43.570;172.580;2023-11-21T01:33:22;8.15;;;1.10;;
68854;SDS011;69984;-43.570;172.580;2023-11-21T01:35:50;2.45;;;0.32;;
68854;SDS011;69984;-43.570;172.580;2023-11-21T01:38:20;4.55;;;0.35;;
68854;SDS011;69984;-43.570;172.580;2023-11-21T01:40:48;5.28;;;0.55;;
68854;SDS011;69984;-43.570;172.580;2023-11-21T01:43:18;3.20;;;0.50;;
68854;SDS011;69984;-43.570;172.580;2023-11-21T01:45:45;2.00;;;0.30;;
68854;SDS011;69984;-43.570;172.580;2023-11-21T01:48:12;1.65;;;0.50;;
68854;SDS011;69984;-43.570;172.580;2023-11-21T01:50:42;2.38;;;0.35;;
68854;SDS011;69984;-43.570;172.580;2023-11-21T01:53:11;1.63;;;0.40;;
68854;SDS011;69984;-43.570;172.580;2023-11-21T01:55:40;1.13;;;0.30;;
68854;SDS011;69984;-43.570;172.580;2023-11-21T01:58:09;1.90;;;0.28;;
68854;SDS011;69984;-43.570;172.580;2023-11-21T02:00:38;0.85;;;0.20;;
68854;SDS011;69984;-43.570;172.580;2023-11-21T02:03:05;0.55;;;0.08;;
68854;SDS011;69984;-43.570;172.580;2023-11-21T02:05:32;3.65;;;0.10;;
68854;SDS011;69984;-43.570;172.580;2023-11-21T02:08:00;4.53;;;0.30;;
68854;SDS011;69984;-43.570;172.580;2023-11-21T02:10:28;1.30;;;0.40;;
68854;SDS011;69984;-43.570;172.580;2023-11-21T02:12:56;1.65;;;0.20;;
68854;SDS011;69984;-43.570;172.580;2023-11-21T02:15:25;1.50;;;0.10;;
68854;SDS011;69984;-43.570;172.580;2023-11-21T02:17:54;2.35;;;0.13;;
68854;SDS011;69984;-43.570;172.580;2023-11-21T02:20:23;0.57;;;0.15;;
68854;SDS011;69984;-43.570;172.580;2023-11-21T02:22:55;2.63;;;0.65;;
68854;SDS011;69984;-43.570;172.580;2023-11-21T02:25:29;0.82;;;0.20;;
68854;SDS011;69984;-43.570;172.580;2023-11-21T02:27:58;0.13;;;0.00;;
68854;SDS011;69984;-43.570;172.580;2023-11-21T02:30:27;1.40;;;0.20;;
68854;SDS011;69984;-43.570;172.580;2023-11-21T02:32:56;1.70;;;0.15;;
68854;SDS011;69984;-43.570;172.580;2023-11-21T02:35:23;1.55;;;0.25;;
68854;SDS011;69984;-43.570;172.580;2023-11-21T02:37:54;0.47;;;0.20;;
68854;SDS011;69984;-43.570;172.580;2023-11-21T02:40:21;0.28;;;0.10;;
68854;SDS011;69984;-43.570;172.580;2023-11-21T02:45:18;1.13;;;0.20;;
68854;SDS011;69984;-43.570;172.580;2023-11-21T02:47:49;0.10;;;0.10;;
68854;SDS011;69984;-43.570;172.580;2023-11-21T02:50:18;1.05;;;0.20;;
68854;SDS011;69984;-43.570;172.580;2023-11-21T02:52:45;0.20;;;0.10;;
68854;SDS011;69984;-43.570;172.580;2023-11-21T02:55:13;0.52;;;0.05;;
68854;SDS011;69984;-43.570;172.580;2023-11-21T02:57:40;0.43;;;0.10;;
68854;SDS011;69984;-43.570;172.580;2023-11-21T03:00:07;0.20;;;0.00;;
68854;SDS011;69984;-43.570;172.580;2023-11-21T03:02:40;0.75;;;0.10;;
68854;SDS011;69984;-43.570;172.580;2023-11-21T03:05:08;0.55;;;0.30;;
68854;SDS011;69984;-43.570;172.580;2023-11-21T03:07:38;3.63;;;0.10;;
68854;SDS011;69984;-43.570;172.580;2023-11-21T03:10:09;0.75;;;0.10;;
68854;SDS011;69984;-43.570;172.580;2023-11-21T03:12:39;1.52;;;0.20;;
68854;SDS011;69984;-43.570;172.580;2023-11-21T03:15:07;0.82;;;0.20;;
68854;SDS011;69984;-43.570;172.580;2023-11-21T03:17:35;1.08;;;0.30;;
68854;SDS011;69984;-43.570;172.580;2023-11-21T03:20:02;1.25;;;0.20;;
68854;SDS011;69984;-43.570;172.580;2023-11-21T03:22:30;0.55;;;0.10;;
68854;SDS011;69984;-43.570;172.580;2023-11-21T03:24:58;0.20;;;0.03;;
68854;SDS011;69984;-43.570;172.580;2023-11-21T03:27:25;2.30;;;0.10;;
68854;SDS011;69984;-43.570;172.580;2023-11-21T03:29:53;1.55;;;0.20;;
68854;SDS011;69984;-43.570;172.580;2023-11-21T03:32:20;2.05;;;0.13;;
68854;SDS011;69984;-43.570;172.580;2023-11-21T03:34:57;0.10;;;0.10;;
68854;SDS011;69984;-43.570;172.580;2023-11-21T03:37:24;0.35;;;0.10;;
68854;SDS011;69984;-43.570;172.580;2023-11-21T03:39:53;0.80;;;0.10;;
68854;SDS011;69984;-43.570;172.580;2023-11-21T03:42:21;0.90;;;0.10;;
68854;SDS011;69984;-43.570;172.580;2023-11-21T03:44:49;2.13;;;0.60;;
68854;SDS011;69984;-43.570;172.580;2023-11-21T03:47:16;2.45;;;0.20;;
68854;SDS011;69984;-43.570;172.580;2023-11-21T03:49:44;0.60;;;0.20;;
68854;SDS011;69984;-43.570;172.580;2023-11-21T03:52:12;2.40;;;0.20;;
68854;SDS011;69984;-43.570;172.580;2023-11-21T03:54:39;1.23;;;0.50;;
68854;SDS011;69984;-43.570;172.580;2023-11-21T03:57:06;1.40;;;0.10;;
68854;SDS011;69984;-43.570;172.580;2023-11-21T03:59:33;2.00;;;0.17;;
68854;SDS011;69984;-43.570;172.580;2023-11-21T04:02:00;2.88;;;0.20;;
68854;SDS011;69984;-43.570;172.580;2023-11-21T04:04:27;2.08;;;0.10;;
68854;SDS011;69984;-43.570;172.580;2023-11-21T04:06:54;0.00;;;0.00;;
68854;SDS011;69984;-43.570;172.580;2023-11-21T04:09:21;2.80;;;0.35;;
68854;SDS011;69984;-43.570;172.580;2023-11-21T04:11:51;1.30;;;0.30;;
68854;SDS011;69984;-43.570;172.580;2023-11-21T04:14:19;1.80;;;0.20;;
68854;SDS011;69984;-43.570;172.580;2023-11-21T04:16:46;0.98;;;0.20;;
68854;SDS011;69984;-43.570;172.580;2023-11-21T04:19:14;1.92;;;0.20;;
68854;SDS011;69984;-43.570;172.580;2023-11-21T04:21:42;3.15;;;0.38;;
68854;SDS011;69984;-43.570;172.580;2023-11-21T04:24:10;1.55;;;0.20;;
68854;SDS011;69984;-43.570;172.580;2023-11-21T04:26:37;4.82;;;0.40;;
68854;SDS011;69984;-43.570;172.580;2023-11-21T04:29:04;2.33;;;0.25;;
68854;SDS011;69984;-43.570;172.580;2023-11-21T04:31:31;1.38;;;0.30;;
68854;SDS011;69984;-43.570;172.580;2023-11-21T04:33:59;3.35;;;0.30;;
68854;SDS011;69984;-43.570;172.580;2023-11-21T04:36:26;9.00;;;0.80;;
68854;SDS011;69984;-43.570;172.580;2023-11-21T04:38:53;0.73;;;0.10;;
68854;SDS011;69984;-43.570;172.580;2023-11-21T04:41:20;0.98;;;0.35;;
68854;SDS011;69984;-43.570;172.580;2023-11-21T04:43:48;2.15;;;0.40;;
68854;SDS011;69984;-43.570;172.580;2023-11-21T04:46:15;3.60;;;0.28;;
68854;SDS011;69984;-43.570;172.580;2023-11-21T04:48:42;1.50;;;0.30;;
68854;SDS011;69984;-43.570;172.580;2023-11-21T04:51:09;1.98;;;0.30;;
68854;SDS011;69984;-43.570;172.580;2023-11-21T04:53:39;6.88;;;0.55;;
68854;SDS011;69984;-43.570;172.580;2023-11-21T04:56:07;2.10;;;0.45;;
68854;SDS011;69984;-43.570;172.580;2023-11-21T04:58:34;2.88;;;0.52;;
68854;SDS011;69984;-43.570;172.580;2023-11-21T05:01:01;2.10;;;0.40;;
68854;SDS011;69984;-43.570;172.580;2023-11-21T05:03:29;1.25;;;0.35;;
68854;SDS011;69984;-43.570;172.580;2023-11-21T05:05:56;3.45;;;0.80;;
68854;SDS011;69984;-43.570;172.580;2023-11-21T05:08:23;1.98;;;0.30;;
68854;SDS011;69984;-43.570;172.580;2023-11-21T05:10:51;2.40;;;0.95;;
68854;SDS011;69984;-43.570;172.580;2023-11-21T05:13:19;4.88;;;0.73;;
68854;SDS011;69984;-43.570;172.580;2023-11-21T05:15:47;1.25;;;0.35;;
68854;SDS011;69984;-43.570;172.580;2023-11-21T05:18:14;3.92;;;0.70;;
68854;SDS011;69984;-43.570;172.580;2023-11-21T05:20:41;4.38;;;0.82;;
68854;SDS011;69984;-43.570;172.580;2023-11-21T05:23:08;8.48;;;0.70;;
68854;SDS011;69984;-43.570;172.580;2023-11-21T05:25:35;9.02;;;0.95;;
68854;SDS011;69984;-43.570;172.580;2023-11-21T05:28:02;3.45;;;0.63;;
68854;SDS011;69984;-43.570;172.580;2023-11-21T05:30:29;3.47;;;0.57;;
68854;SDS011;69984;-43.570;172.580;2023-11-21T05:32:56;6.28;;;1.17;;
68854;SDS011;69984;-43.570;172.580;2023-11-21T05:35:23;4.57;;;0.70;;
68854;SDS011;69984;-43.570;172.580;2023-11-21T05:37:52;7.20;;;1.10;;
68854;SDS011;69984;-43.570;172.580;2023-11-21T05:40:19;11.75;;;1.00;;
68854;SDS011;69984;-43.570;172.580;2023-11-21T05:42:47;5.05;;;0.80;;
68854;SDS011;69984;-43.570;172.580;2023-11-21T05:47:44;3.75;;;0.73;;
68854;SDS011;69984;-43.570;172.580;2023-11-21T05:50:13;2.35;;;0.65;;
68854;SDS011;69984;-43.570;172.580;2023-11-21T05:52:43;10.25;;;1.15;;
68854;SDS011;69984;-43.570;172.580;2023-11-21T05:55:11;4.70;;;0.90;;
68854;SDS011;69984;-43.570;172.580;2023-11-21T05:57:39;12.13;;;1.30;;
68854;SDS011;69984;-43.570;172.580;2023-11-21T06:00:08;9.45;;;1.25;;
68854;SDS011;69984;-43.570;172.580;2023-11-21T06:02:40;11.07;;;1.52;;
68854;SDS011;69984;-43.570;172.580;2023-11-21T06:05:07;5.03;;;1.17;;
68854;SDS011;69984;-43.570;172.580;2023-11-21T06:07:35;10.23;;;1.23;;
68854;SDS011;69984;-43.570;172.580;2023-11-21T06:10:07;11.43;;;2.28;;
68854;SDS011;69984;-43.570;172.580;2023-11-21T06:12:37;10.13;;;1.30;;
68854;SDS011;69984;-43.570;172.580;2023-11-21T06:15:05;7.13;;;1.50;;
68854;SDS011;69984;-43.570;172.580;2023-11-21T06:17:34;8.95;;;1.10;;
68854;SDS011;69984;-43.570;172.580;2023-11-21T06:20:05;2.50;;;0.65;;
68854;SDS011;69984;-43.570;172.580;2023-11-21T06:22:40;9.15;;;0.90;;
68854;SDS011;69984;-43.570;172.580;2023-11-21T06:25:09;4.45;;;0.82;;
68854;SDS011;69984;-43.570;172.580;2023-11-21T06:30:06;2.15;;;0.65;;
68854;SDS011;69984;-43.570;172.580;2023-11-21T06:32:38;4.68;;;0.93;;
68854;SDS011;69984;-43.570;172.580;2023-11-21T06:35:06;2.25;;;0.65;;
68854;SDS011;69984;-43.570;172.580;2023-11-21T06:37:37;7.38;;;1.02;;
68854;SDS011;69984;-43.570;172.580;2023-11-21T06:40:05;10.10;;;0.98;;
68854;SDS011;69984;-43.570;172.580;2023-11-21T06:42:32;5.32;;;1.17;;
68854;SDS011;69984;-43.570;172.580;2023-11-21T06:45:00;8.82;;;1.60;;
68854;SDS011;69984;-43.570;172.580;2023-11-21T06:47:29;7.43;;;1.17;;
68854;SDS011;69984;-43.570;172.580;2023-11-21T06:49:56;6.25;;;1.05;;
68854;SDS011;69984;-43.570;172.580;2023-11-21T06:52:24;5.68;;;0.88;;
68854;SDS011;69984;-43.570;172.580;2023-11-21T06:54:52;5.40;;;1.08;;
68854;SDS011;69984;-43.570;172.580;2023-11-21T06:57:19;6.82;;;1.13;;
68854;SDS011;69984;-43.570;172.580;2023-11-21T06:59:46;10.70;;;1.10;;
68854;SDS011;69984;-43.570;172.580;2023-11-21T07:02:13;6.53;;;1.80;;
68854;SDS011;69984;-43.570;172.580;2023-11-21T07:04:44;10.75;;;2.25;;
68854;SDS011;69984;-43.570;172.580;2023-11-21T07:07:12;6.47;;;0.70;;
68854;SDS011;69984;-43.570;172.580;2023-11-21T07:09:39;6.78;;;0.77;;
68854;SDS011;69984;-43.570;172.580;2023-11-21T07:12:06;7.90;;;0.80;;
68854;SDS011;69984;-43.570;172.580;2023-11-21T07:14:34;12.50;;;1.10;;
68854;SDS011;69984;-43.570;172.580;2023-11-21T07:17:01;3.08;;;0.80;;
68854;SDS011;69984;-43.570;172.580;2023-11-21T07:19:28;7.55;;;0.90;;
68854;SDS011;69984;-43.570;172.580;2023-11-21T07:21:56;6.82;;;0.95;;
68854;SDS011;69984;-43.570;172.580;2023-11-21T07:24:23;9.13;;;0.80;;
68854;SDS011;69984;-43.570;172.580;2023-11-21T07:26:50;8.43;;;1.38;;
68854;SDS011;69984;-43.570;172.580;2023-11-21T07:29:23;9.57;;;0.90;;
68854;SDS011;69984;-43.570;172.580;2023-11-21T07:31:55;6.15;;;1.13;;
68854;SDS011;69984;-43.570;172.580;2023-11-21T07:34:22;7.43;;;1.17;;
68854;SDS011;69984;-43.570;172.580;2023-11-21T07:36:49;3.03;;;1.10;;
68854;SDS011;69984;-43.570;172.580;2023-11-21T07:39:16;5.32;;;1.83;;
68854;SDS011;69984;-43.570;172.580;2023-11-21T07:41:43;3.42;;;0.70;;
68854;SDS011;69984;-43.570;172.580;2023-11-21T07:44:14;4.03;;;0.65;;
68854;SDS011;69984;-43.570;172.580;2023-11-21T07:46:43;5.30;;;0.82;;
68854;SDS011;69984;-43.570;172.580;2023-11-21T07:49:10;13.63;;;1.40;;
68854;SDS011;69984;-43.570;172.580;2023-11-21T07:51:41;2.28;;;0.60;;
68854;SDS011;69984;-43.570;172.580;2023-11-21T07:54:09;8.18;;;1.02;;
68854;SDS011;69984;-43.570;172.580;2023-11-21T07:56:37;5.60;;;0.70;;
68854;SDS011;69984;-43.570;172.580;2023-11-21T07:59:04;1.88;;;0.52;;
68854;SDS011;69984;-43.570;172.580;2023-11-21T08:01:31;3.47;;;0.75;;
68854;SDS011;69984;-43.570;172.580;2023-11-21T08:03:58;3.35;;;0.70;;
68854;SDS011;69984;-43.570;172.580;2023-11-21T08:06:32;2.40;;;0.52;;
68854;SDS011;69984;-43.570;172.580;2023-11-21T08:08:59;4.03;;;1.30;;
68854;SDS011;69984;-43.570;172.580;2023-11-21T08:11:27;10.73;;;1.25;;
68854;SDS011;69984;-43.570;172.580;2023-11-21T08:13:57;4.55;;;0.88;;
68854;SDS011;69984;-43.570;172.580;2023-11-21T08:16:24;5.88;;;1.40;;
68854;SDS011;69984;-43.570;172.580;2023-11-21T08:18:53;4.20;;;0.70;;
68854;SDS011;69984;-43.570;172.580;2023-11-21T08:21:20;3.97;;;1.02;;
68854;SDS011;69984;-43.570;172.580;2023-11-21T08:23:49;5.43;;;1.10;;
68854;SDS011;69984;-43.570;172.580;2023-11-21T08:26:20;6.30;;;0.70;;
68854;SDS011;69984;-43.570;172.580;2023-11-21T08:28:48;2.53;;;0.60;;
68854;SDS011;69984;-43.570;172.580;2023-11-21T08:31:22;4.38;;;0.40;;
68854;SDS011;69984;-43.570;172.580;2023-11-21T08:33:51;1.40;;;0.32;;
68854;SDS011;69984;-43.570;172.580;2023-11-21T08:36:21;4.18;;;0.82;;
68854;SDS011;69984;-43.570;172.580;2023-11-21T08:38:50;3.13;;;0.70;;
68854;SDS011;69984;-43.570;172.580;2023-11-21T08:41:20;4.18;;;1.00;;
68854;SDS011;69984;-43.570;172.580;2023-11-21T08:43:47;2.83;;;0.88;;
68854;SDS011;69984;-43.570;172.580;2023-11-21T08:46:16;7.53;;;0.70;;
68854;SDS011;69984;-43.570;172.580;2023-11-21T08:48:43;4.43;;;0.73;;
68854;SDS011;69984;-43.570;172.580;2023-11-21T08:51:12;1.55;;;0.55;;
68854;SDS011;69984;-43.570;172.580;2023-11-21T08:53:42;8.85;;;1.20;;
68854;SDS011;69984;-43.570;172.580;2023-11-21T08:56:13;2.35;;;0.40;;
68854;SDS011;69984;-43.570;172.580;2023-11-21T08:58:40;5.10;;;0.80;;
68854;SDS011;69984;-43.570;172.580;2023-11-21T09:01:07;2.47;;;0.73;;
68854;SDS011;69984;-43.570;172.580;2023-11-21T09:03:35;6.78;;;1.05;;
68854;SDS011;69984;-43.570;172.580;2023-11-21T09:06:02;6.97;;;1.88;;
68854;SDS011;69984;-43.570;172.580;2023-11-21T09:08:30;5.45;;;0.93;;
68854;SDS011;69984;-43.570;172.580;2023-11-21T09:10:57;2.30;;;0.70;;
68854;SDS011;69984;-43.570;172.580;2023-11-21T09:13:24;12.00;;;0.70;;
68854;SDS011;69984;-43.570;172.580;2023-11-21T09:15:51;4.28;;;0.85;;
68854;SDS011;69984;-43.570;172.580;2023-11-21T09:18:18;2.30;;;0.80;;
68854;SDS011;69984;-43.570;172.580;2023-11-21T09:20:46;6.47;;;0.75;;
68854;SDS011;69984;-43.570;172.580;2023-11-21T09:23:13;10.38;;;1.25;;
68854;SDS011;69984;-43.570;172.580;2023-11-21T09:25:40;3.35;;;0.75;;
68854;SDS011;69984;-43.570;172.580;2023-11-21T09:28:11;2.90;;;0.75;;
68854;SDS011;69984;-43.570;172.580;2023-11-21T09:30:39;7.10;;;1.27;;
68854;SDS011;69984;-43.570;172.580;2023-11-21T09:33:06;5.68;;;1.45;;
68854;SDS011;69984;-43.570;172.580;2023-11-21T09:35:39;3.05;;;0.55;;
68854;SDS011;69984;-43.570;172.580;2023-11-21T09:38:06;7.68;;;0.93;;
68854;SDS011;69984;-43.570;172.580;2023-11-21T09:40:36;6.32;;;1.08;;
68854;SDS011;69984;-43.570;172.580;2023-11-21T09:43:15;5.03;;;0.90;;
68854;SDS011;69984;-43.570;172.580;2023-11-21T09:45:45;3.15;;;0.43;;
68854;SDS011;69984;-43.570;172.580;2023-11-21T09:48:14;2.10;;;0.50;;
68854;SDS011;69984;-43.570;172.580;2023-11-21T09:53:19;7.03;;;0.95;;
68854;SDS011;69984;-43.570;172.580;2023-11-21T09:55:48;2.22;;;0.57;;
68854;SDS011;69984;-43.570;172.580;2023-11-21T09:58:16;10.25;;;1.27;;
68854;SDS011;69984;-43.570;172.580;2023-11-21T10:00:48;11.65;;;1.65;;
68854;SDS011;69984;-43.570;172.580;2023-11-21T10:03:18;7.97;;;0.85;;
68854;SDS011;69984;-43.570;172.580;2023-11-21T10:05:46;5.45;;;0.88;;
68854;SDS011;69984;-43.570;172.580;2023-11-21T10:08:17;16.23;;;1.35;;
68854;SDS011;69984;-43.570;172.580;2023-11-21T10:10:46;5.70;;;1.00;;
68854;SDS011;69984;-43.570;172.580;2023-11-21T10:13:17;8.82;;;1.63;;
68854;SDS011;69984;-43.570;172.580;2023-11-21T10:15:49;11.65;;;1.30;;
68854;SDS011;69984;-43.570;172.580;2023-11-21T10:18:18;9.45;;;1.40;;
68854;SDS011;69984;-43.570;172.580;2023-11-21T10:20:48;11.82;;;1.60;;
68854;SDS011;69984;-43.570;172.580;2023-11-21T10:23:19;21.60;;;2.17;;
68854;SDS011;69984;-43.570;172.580;2023-11-21T10:25:47;11.10;;;2.03;;
68854;SDS011;69984;-43.570;172.580;2023-11-21T10:28:16;13.27;;;1.85;;
68854;SDS011;69984;-43.570;172.580;2023-11-21T10:30:43;5.38;;;1.52;;
68854;SDS011;69984;-43.570;172.580;2023-11-21T10:33:11;14.70;;;1.75;;
68854;SDS011;69984;-43.570;172.580;2023-11-21T10:35:48;8.70;;;1.20;;
68854;SDS011;69984;-43.570;172.580;2023-11-21T10:38:21;14.32;;;2.40;;
68854;SDS011;69984;-43.570;172.580;2023-11-21T10:40:49;15.13;;;2.08;;
68854;SDS011;69984;-43.570;172.580;2023-11-21T10:43:18;17.17;;;1.98;;
68854;SDS011;69984;-43.570;172.580;2023-11-21T10:45:45;16.58;;;1.80;;
68854;SDS011;69984;-43.570;172.580;2023-11-21T10:48:13;13.50;;;1.58;;
68854;SDS011;69984;-43.570;172.580;2023-11-21T10:50:41;9.23;;;1.13;;
68854;SDS011;69984;-43.570;172.580;2023-11-21T10:53:09;13.00;;;1.02;;
68854;SDS011;69984;-43.570;172.580;2023-11-21T10:55:38;13.10;;;1.30;;
68854;SDS011;69984;-43.570;172.580;2023-11-21T10:58:05;12.25;;;1.30;;
68854;SDS011;69984;-43.570;172.580;2023-11-21T11:00:33;12.05;;;1.25;;
68854;SDS011;69984;-43.570;172.580;2023-11-21T11:03:00;17.67;;;1.70;;
68854;SDS011;69984;-43.570;172.580;2023-11-21T11:05:29;12.48;;;1.25;;
68854;SDS011;69984;-43.570;172.580;2023-11-21T11:10:38;18.95;;;1.42;;
68854;SDS011;69984;-43.570;172.580;2023-11-21T11:13:06;19.85;;;2.55;;
68854;SDS011;69984;-43.570;172.580;2023-11-21T11:15:34;31.67;;;2.55;;
68854;SDS011;69984;-43.570;172.580;2023-11-21T11:18:01;21.95;;;2.08;;
68854;SDS011;69984;-43.570;172.580;2023-11-21T11:20:32;16.50;;;1.85;;
68854;SDS011;69984;-43.570;172.580;2023-11-21T11:23:32;18.60;;;1.85;;
68854;SDS011;69984;-43.570;172.580;2023-11-21T11:29:06;18.02;;;1.60;;
68854;SDS011;69984;-43.570;172.580;2023-11-21T11:35:01;8.50;;;1.35;;
68854;SDS011;69984;-43.570;172.580;2023-11-21T11:37:40;9.20;;;1.38;;
68854;SDS011;69984;-43.570;172.580;2023-11-21T11:40:07;9.38;;;0.98;;
68854;SDS011;69984;-43.570;172.580;2023-11-21T11:42:54;15.57;;;1.25;;
68854;SDS011;69984;-43.570;172.580;2023-11-21T11:45:33;5.57;;;0.82;;
68854;SDS011;69984;-43.570;172.580;2023-11-21T11:48:03;15.25;;;1.80;;
68854;SDS011;69984;-43.570;172.580;2023-11-21T11:50:31;9.55;;;1.08;;
68854;SDS011;69984;-43.570;172.580;2023-11-21T11:55:46;16.08;;;2.28;;
68854;SDS011;69984;-43.570;172.580;2023-11-21T11:58:23;11.70;;;1.55;;
68854;SDS011;69984;-43.570;172.580;2023-11-21T12:01:06;9.88;;;1.77;;
68854;SDS011;69984;-43.570;172.580;2023-11-21T12:03:33;12.73;;;2.67;;
68854;SDS011;69984;-43.570;172.580;2023-11-21T12:06:02;7.05;;;1.42;;
68854;SDS011;69984;-43.570;172.580;2023-11-21T12:08:32;11.52;;;1.20;;
68854;SDS011;69984;-43.570;172.580;2023-11-21T12:11:01;10.07;;;1.77;;
68854;SDS011;69984;-43.570;172.580;2023-11-21T12:13:28;6.72;;;1.35;;
68854;SDS011;69984;-43.570;172.580;2023-11-21T12:15:55;8.40;;;1.27;;
68854;SDS011;69984;-43.570;172.580;2023-11-21T12:18:22;9.13;;;1.13;;
68854;SDS011;69984;-43.570;172.580;2023-11-21T12:20:52;7.88;;;1.10;;
68854;SDS011;69984;-43.570;172.580;2023-11-21T12:23:19;6.10;;;1.27;;
68854;SDS011;69984;-43.570;172.580;2023-11-21T12:25:47;5.35;;;1.13;;
68854;SDS011;69984;-43.570;172.580;2023-11-21T12:28:14;13.73;;;2.55;;
68854;SDS011;69984;-43.570;172.580;2023-11-21T12:30:42;17.70;;;2.53;;
68854;SDS011;69984;-43.570;172.580;2023-11-21T12:33:09;10.60;;;1.30;;
68854;SDS011;69984;-43.570;172.580;2023-11-21T12:35:39;16.73;;;1.75;;
68854;SDS011;69984;-43.570;172.580;2023-11-21T12:38:06;11.25;;;1.38;;
68854;SDS011;69984;-43.570;172.580;2023-11-21T12:40:34;12.43;;;1.35;;
68854;SDS011;69984;-43.570;172.580;2023-11-21T12:43:01;8.90;;;1.80;;
68854;SDS011;69984;-43.570;172.580;2023-11-21T12:45:29;11.50;;;2.10;;
68854;SDS011;69984;-43.570;172.580;2023-11-21T12:48:01;12.32;;;2.28;;
68854;SDS011;69984;-43.570;172.580;2023-11-21T12:50:34;9.52;;;1.20;;
68854;SDS011;69984;-43.570;172.580;2023-11-21T12:53:04;15.73;;;1.67;;
68854;SDS011;69984;-43.570;172.580;2023-11-21T12:55:37;11.30;;;1.77;;
68854;SDS011;69984;-43.570;172.580;2023-11-21T12:58:06;6.75;;;1.48;;
68854;SDS011;69984;-43.570;172.580;2023-11-21T13:03:04;11.35;;;1.85;;
68854;SDS011;69984;-43.570;172.580;2023-11-21T13:05:38;19.48;;;1.80;;
68854;SDS011;69984;-43.570;172.580;2023-11-21T13:08:10;16.20;;;1.90;;
68854;SDS011;69984;-43.570;172.580;2023-11-21T13:10:39;12.77;;;1.55;;
68854;SDS011;69984;-43.570;172.580;2023-11-21T13:13:10;9.45;;;1.23;;
68854;SDS011;69984;-43.570;172.580;2023-11-21T13:15:52;11.60;;;1.23;;
68854;SDS011;69984;-43.570;172.580;2023-11-21T13:18:22;6.72;;;2.00;;
68854;SDS011;69984;-43.570;172.580;2023-11-21T13:20:56;8.02;;;0.77;;
68854;SDS011;69984;-43.570;172.580;2023-11-21T13:23:25;15.98;;;1.42;;
68854;SDS011;69984;-43.570;172.580;2023-11-21T13:25:54;4.18;;;1.13;;
68854;SDS011;69984;-43.570;172.580;2023-11-21T13:28:22;6.30;;;1.02;;
68854;SDS011;69984;-43.570;172.580;2023-11-21T13:30:52;5.72;;;0.90;;
68854;SDS011;69984;-43.570;172.580;2023-11-21T13:33:19;7.80;;;1.08;;
68854;SDS011;69984;-43.570;172.580;2023-11-21T13:35:53;5.32;;;0.77;;
68854;SDS011;69984;-43.570;172.580;2023-11-21T13:38:22;13.30;;;1.38;;
68854;SDS011;69984;-43.570;172.580;2023-11-21T13:40:50;6.72;;;1.17;;
68854;SDS011;69984;-43.570;172.580;2023-11-21T13:43:22;8.02;;;1.50;;
68854;SDS011;69984;-43.570;172.580;2023-11-21T13:45:51;8.38;;;1.30;;
68854;SDS011;69984;-43.570;172.580;2023-11-21T13:48:26;7.05;;;1.42;;
68854;SDS011;69984;-43.570;172.580;2023-11-21T13:51:16;13.32;;;1.38;;
68854;SDS011;69984;-43.570;172.580;2023-11-21T13:53:44;11.75;;;1.50;;
68854;SDS011;69984;-43.570;172.580;2023-11-21T13:56:21;9.32;;;1.73;;
68854;SDS011;69984;-43.570;172.580;2023-11-21T13:58:50;11.50;;;2.35;;
68854;SDS011;69984;-43.570;172.580;2023-11-21T14:01:17;20.30;;;1.88;;
68854;SDS011;69984;-43.570;172.580;2023-11-21T14:03:57;22.58;;;1.98;;
68854;SDS011;69984;-43.570;172.580;2023-11-21T14:06:47;17.60;;;1.88;;
68854;SDS011;69984;-43.570;172.580;2023-11-21T14:09:20;8.07;;;1.15;;
68854;SDS011;69984;-43.570;172.580;2023-11-21T14:11:51;12.55;;;1.75;;
68854;SDS011;69984;-43.570;172.580;2023-11-21T14:14:21;14.68;;;1.25;;
68854;SDS011;69984;-43.570;172.580;2023-11-21T14:16:51;14.63;;;1.73;;
68854;SDS011;69984;-43.570;172.580;2023-11-21T14:19:19;12.57;;;1.75;;
68854;SDS011;69984;-43.570;172.580;2023-11-21T14:21:46;14.82;;;2.60;;
68854;SDS011;69984;-43.570;172.580;2023-11-21T14:24:14;12.10;;;1.48;;
68854;SDS011;69984;-43.570;172.580;2023-11-21T14:26:45;11.13;;;1.80;;
68854;SDS011;69984;-43.570;172.580;2023-11-21T14:29:13;9.13;;;1.75;;
68854;SDS011;69984;-43.570;172.580;2023-11-21T14:31:45;21.33;;;2.35;;
68854;SDS011;69984;-43.570;172.580;2023-11-21T14:34:13;15.88;;;1.88;;
68854;SDS011;69984;-43.570;172.580;2023-11-21T14:36:41;14.32;;;2.78;;
68854;SDS011;69984;-43.570;172.580;2023-11-21T14:39:09;13.13;;;1.35;;
68854;SDS011;69984;-43.570;172.580;2023-11-21T14:41:56;16.35;;;2.10;;